| time (UTC) | temp C | wind direction | speed KPH | gust KPH | rain 1hr cm | rain 24hr cm | rain mn cm | humidity % | barometer mb |
| 20260906173239 | 25 | 187 | 11.3 | 20.9 | 0.00 | 0.00 | 0.00 | 75 | 1020.6 |
| 20260906172241 | 25 | 182 | 11.3 | 19.3 | 0.00 | 0.00 | 0.00 | 75 | 1020.8 |
| 20260906171239 | 25 | 167 | 9.7 | 19.3 | 0.00 | 0.00 | 0.00 | 74 | 1020.9 |
| 20260906170239 | 25 | 184 | 8.0 | 17.7 | 0.00 | 0.00 | 0.00 | 76 | 1021.1 |
| 20260906164239 | 24 | 207 | 6.4 | 14.5 | 0.00 | 0.00 | 0.00 | 78 | 1021.2 |
| 20260906163243 | 24 | 116 | 4.8 | 14.5 | 0.00 | 0.00 | 0.00 | 79 | 1021.2 |
| 20260906162237 | 23 | 140 | 6.4 | 14.5 | 0.00 | 0.00 | 0.00 | 80 | 1021.2 |
| 20260906161238 | 23 | 142 | 6.4 | 12.9 | 0.00 | 0.00 | 0.00 | 80 | 1021.1 |
| 20260906160237 | 23 | 164 | 3.2 | 12.9 | 0.00 | 0.00 | 0.00 | 81 | 1020.9 |
| 20260906155236 | 22 | 132 | 4.8 | 11.3 | 0.00 | 0.00 | 0.00 | 83 | 1020.9 |
| 20260906153237 | 22 | 111 | 6.4 | 14.5 | 0.00 | 0.00 | 0.00 | 83 | 1020.8 |
| 20260906152237 | 21 | 104 | 4.8 | 9.7 | 0.00 | 0.00 | 0.00 | 86 | 1021.1 |
| 20260906151235 | 21 | 204 | 6.4 | 9.7 | 0.00 | 0.00 | 0.00 | 86 | 1020.8 |
| 20260906150236 | 21 | 144 | 4.8 | 9.7 | 0.00 | 0.00 | 0.00 | 86 | 1021.1 |
| 20260906145235 | 20 | 184 | 8.0 | 12.9 | 0.00 | 0.00 | 0.00 | 89 | 1021.2 |
| 20260906144234 | 20 | 187 | 9.7 | 16.1 | 0.00 | 0.00 | 0.00 | 91 | 1020.6 |
| 20260906143235 | 20 | 136 | 9.7 | 17.7 | 0.00 | 0.00 | 0.00 | 93 | 1020.5 |
| 20260906142235 | 18 | 167 | 6.4 | 11.3 | 0.00 | 0.00 | 0.00 | 95 | 1020.7 |
| 20260906141233 | 18 | 137 | 4.8 | 12.9 | 0.00 | 0.00 | 0.00 | 96 | 1020.8 |
| 20260906135232 | 16 | 159 | 4.8 | 8.0 | 0.00 | 0.00 | 0.00 | 96 | 1021.4 |
| 20260906134233 | 16 | 137 | 3.2 | 8.0 | 0.00 | 0.00 | 0.00 | 96 | 1021.5 |
| 20260906132232 | 15 | 126 | 0.0 | 0.0 | 0.00 | 0.00 | 0.00 | 97 | 1021.4 |
| 20260906131232 | 14 | 126 | 0.0 | 0.0 | 0.00 | 0.00 | 0.00 | 96 | 1021.3 |
| 20260906130231 | 14 | 126 | 0.0 | 0.0 | 0.00 | 0.00 | 0.00 | 96 | 1021.5 |
| 20260906124229 | 13 | 126 | 0.0 | 0.0 | 0.00 | 0.00 | 0.00 | 96 | 1021.5 |
| 20260906123228 | 13 | 126 | 0.0 | 0.0 | 0.00 | 0.00 | 0.00 | 96 | 1021.2 |
| 20260906122229 | 13 | 126 | 0.0 | 0.0 | 0.00 | 0.00 | 0.00 | 96 | 1020.6 |
| 20260906121228 | 13 | 130 | 0.0 | 1.6 | 0.00 | 0.00 | 0.00 | 95 | 1020.6 |
| 20260906120226 | 13 | 130 | 0.0 | 3.2 | 0.00 | 0.00 | 0.00 | 96 | 1020.7 |
| 20260906115228 | 13 | 130 | 0.0 | 1.6 | 0.00 | 0.00 | 0.00 | 96 | 1020.6 |
| 20260906114227 | 13 | 133 | 0.0 | 0.0 | 0.00 | 0.00 | 0.00 | 95 | 1020.3 |
| 20260906113228 | 13 | 133 | 0.0 | 0.0 | 0.00 | 0.00 | 0.00 | 95 | 1020.3 |
| 20260906112227 | 13 | 133 | 0.0 | 0.0 | 0.00 | 0.00 | 0.00 | 95 | 1020.2 |
| 20260906111227 | 13 | 133 | 0.0 | 0.0 | 0.00 | 0.00 | 0.00 | 95 | 1020.4 |
| 20260906105226 | 13 | 133 | 0.0 | 0.0 | 0.00 | 0.00 | 0.00 | 95 | 1020.2 |
| 20260906104227 | 13 | 133 | 0.0 | 0.0 | 0.00 | 0.00 | 0.00 | 95 | 1020.1 |
| 20260906103227 | 13 | 133 | 0.0 | 4.8 | 0.00 | 0.00 | 0.00 | 95 | 1020.0 |
| 20260906102227 | 13 | 132 | 1.6 | 8.0 | 0.00 | 0.00 | 0.00 | 95 | 1019.8 |
| 20260906101227 | 13 | 138 | 1.6 | 4.8 | 0.00 | 0.00 | 0.00 | 95 | 1019.9 |
| 20260906100227 | 13 | 144 | 0.0 | 1.6 | 0.00 | 0.00 | 0.00 | 95 | 1020.1 |
| 20260906095226 | 13 | 144 | 0.0 | 3.2 | 0.00 | 0.00 | 0.00 | 95 | 1020.0 |
| 20260906094228 | 13 | 144 | 0.0 | 1.6 | 0.00 | 0.00 | 0.00 | 95 | 1019.9 |
| 20260906093225 | 13 | 148 | 0.0 | 4.8 | 0.00 | 0.00 | 0.00 | 95 | 1019.7 |
| 20260906091225 | 14 | 149 | 0.0 | 1.6 | 0.00 | 0.00 | 0.00 | 95 | 1019.9 |
| 20260906090223 | 14 | 139 | 0.0 | 0.0 | 0.00 | 0.00 | 0.00 | 95 | 1020.0 |
| 20260906084222 | 14 | 139 | 1.6 | 6.4 | 0.00 | 0.00 | 0.00 | 95 | 1019.6 |
| 20260906083223 | 14 | 138 | 1.6 | 4.8 | 0.00 | 0.00 | 0.00 | 95 | 1019.8 |
| 20260906082223 | 14 | 138 | 0.0 | 4.8 | 0.00 | 0.00 | 0.00 | 95 | 1019.8 |
| 20260906081223 | 14 | 138 | 0.0 | 1.6 | 0.00 | 0.00 | 0.00 | 95 | 1019.9 |
| 20260906080224 | 14 | 138 | 0.0 | 0.0 | 0.00 | 0.00 | 0.00 | 95 | 1019.9 |
| 20260906075222 | 13 | 138 | 0.0 | 0.0 | 0.00 | 0.00 | 0.00 | 94 | 1020.1 |
| 20260906074222 | 13 | 138 | 0.0 | 3.2 | 0.00 | 0.00 | 0.00 | 94 | 1020.3 |
| 20260906073222 | 14 | 138 | 0.0 | 0.0 | 0.00 | 0.00 | 0.00 | 94 | 1020.3 |
| 20260906072221 | 14 | 138 | 0.0 | 1.6 | 0.00 | 0.00 | 0.00 | 94 | 1020.5 |
| 20260906065220 | 15 | 139 | 0.0 | 0.0 | 0.00 | 0.00 | 0.00 | 94 | 1020.1 |
| 20260906064221 | 15 | 139 | 0.0 | 0.0 | 0.00 | 0.00 | 0.00 | 94 | 1020.0 |
| 20260906063216 | 15 | 139 | 0.0 | 0.0 | 0.00 | 0.00 | 0.00 | 94 | 1020.1 |
| 20260906062215 | 15 | 139 | 0.0 | 0.0 | 0.00 | 0.00 | 0.00 | 94 | 1020.1 |
| 20260906061215 | 15 | 139 | 1.6 | 3.2 | 0.00 | 0.00 | 0.00 | 94 | 1020.1 |
| 20260906060216 | 15 | 139 | 0.0 | 0.0 | 0.00 | 0.00 | 0.00 | 94 | 1020.2 |
| 20260906055214 | 15 | 139 | 0.0 | 0.0 | 0.00 | 0.00 | 0.00 | 94 | 1020.3 |
| 20260906054219 | 16 | 139 | 0.0 | 3.2 | 0.00 | 0.00 | 0.00 | 94 | 1020.5 |
| 20260906053214 | 16 | 138 | 0.0 | 3.2 | 0.00 | 0.00 | 0.00 | 94 | 1020.3 |
| 20260906052211 | 16 | 138 | 3.2 | 8.0 | 0.00 | 0.00 | 0.00 | 94 | 1020.2 |
| 20260906051212 | 16 | 124 | 1.6 | 6.4 | 0.00 | 0.00 | 0.00 | 94 | 1020.2 |
| 20260906050212 | 16 | 119 | 0.0 | 4.8 | 0.00 | 0.00 | 0.00 | 94 | 1020.1 |
| 20260906044214 | 16 | 119 | 0.0 | 0.0 | 0.00 | 0.00 | 0.00 | 94 | 1020.3 |
| 20260906043213 | 16 | 119 | 0.0 | 1.6 | 0.00 | 0.00 | 0.00 | 94 | 1020.4 |
| 20260906042212 | 16 | 119 | 0.0 | 0.0 | 0.00 | 0.00 | 0.00 | 93 | 1020.4 |
| 20260906041213 | 16 | 119 | 0.0 | 0.0 | 0.00 | 0.00 | 0.00 | 93 | 1020.5 |
| 20260906040211 | 16 | 119 | 0.0 | 0.0 | 0.00 | 0.00 | 0.00 | 93 | 1020.5 |
| 20260906035207 | 16 | 119 | 0.0 | 0.0 | 0.00 | 0.00 | 0.00 | 93 | 1020.7 |
| 20260906034207 | 16 | 119 | 0.0 | 0.0 | 0.00 | 0.00 | 0.00 | 93 | 1020.7 |
| 20260906032206 | 16 | 119 | 0.0 | 1.6 | 0.00 | 0.00 | 0.00 | 92 | 1020.5 |
| 20260906031208 | 16 | 119 | 0.0 | 0.0 | 0.00 | 0.00 | 0.00 | 92 | 1020.3 |
| 20260906030206 | 17 | 119 | 0.0 | 0.0 | 0.00 | 0.00 | 0.00 | 91 | 1020.2 |
| 20260906024207 | 17 | 119 | 0.0 | 0.0 | 0.00 | 0.00 | 0.00 | 91 | 1020.2 |
| 20260906023204 | 17 | 119 | 1.6 | 4.8 | 0.00 | 0.00 | 0.00 | 91 | 1019.7 |
| 20260906022204 | 17 | 119 | 3.2 | 8.0 | 0.00 | 0.00 | 0.00 | 90 | 1019.4 |
| 20260906021204 | 17 | 129 | 1.6 | 6.4 | 0.00 | 0.00 | 0.00 | 90 | 1019.2 |
| 20260906020204 | 17 | 134 | 1.6 | 8.0 | 0.00 | 0.00 | 0.00 | 90 | 1019.1 |
| 20260906015204 | 17 | 21 | 0.0 | 6.4 | 0.00 | 0.00 | 0.00 | 90 | 1019.0 |
| 20260906014204 | 17 | 180 | 0.0 | 6.4 | 0.00 | 0.00 | 0.00 | 90 | 1018.5 |
| 20260906013203 | 17 | 194 | 1.6 | 6.4 | 0.00 | 0.00 | 0.00 | 90 | 1018.5 |
| 20260906012202 | 18 | 109 | 1.6 | 11.3 | 0.00 | 0.00 | 0.00 | 89 | 1018.3 |
| 20260906011201 | 18 | 161 | 1.6 | 12.9 | 0.00 | 0.00 | 0.00 | 90 | 1018.2 |
| 20260906010200 | 18 | 143 | 1.6 | 9.7 | 0.00 | 0.00 | 0.00 | 89 | 1018.3 |
| 20260906005200 | 18 | 138 | 4.8 | 11.3 | 0.00 | 0.00 | 0.00 | 89 | 1018.5 |
| 20260906004158 | 18 | 101 | 1.6 | 11.3 | 0.00 | 0.00 | 0.00 | 89 | 1018.6 |
| 20260906003159 | 18 | 31 | 1.6 | 8.0 | 0.00 | 0.00 | 0.00 | 89 | 1018.7 |
| 20260906002157 | 18 | 103 | 4.8 | 16.1 | 0.00 | 0.00 | 0.00 | 88 | 1018.6 |
| 20260906000156 | 19 | 144 | 6.4 | 20.9 | 0.00 | 0.00 | 0.00 | 87 | 1018.1 |
| 20260905234156 | 19 | 142 | 6.4 | 17.7 | 0.00 | 0.00 | 0.00 | 88 | 1018.6 |
| 20260905233154 | 19 | 114 | 3.2 | 16.1 | 0.00 | 0.00 | 0.00 | 88 | 1018.6 |
| 20260905232154 | 19 | 117 | 3.2 | 11.3 | 0.00 | 0.00 | 0.00 | 89 | 1018.8 |
| 20260905231154 | 19 | 139 | 4.8 | 14.5 | 0.00 | 0.00 | 0.00 | 89 | 1018.6 |
| 20260905224154 | 19 | 132 | 8.0 | 14.5 | 0.00 | 0.00 | 0.00 | 89 | 1018.9 |
| 20260905222153 | 19 | 130 | 4.8 | 14.5 | 0.00 | 0.00 | 0.00 | 89 | 1019.0 |
| 20260905221150 | 19 | 117 | 4.8 | 11.3 | 0.00 | 0.00 | 0.00 | 89 | 1019.3 |
| 20260905212149 | 20 | 143 | 4.8 | 11.3 | 0.00 | 0.00 | 0.00 | 89 | 1019.6 |
| 20260905211149 | 20 | 146 | 6.4 | 12.9 | 0.00 | 0.00 | 0.00 | 89 | 1019.9 |
| 20260905210148 | 20 | 142 | 8.0 | 12.9 | 0.00 | 0.00 | 0.00 | 89 | 1019.9 |
| 20260905205147 | 20 | 170 | 6.4 | 9.7 | 0.00 | 0.00 | 0.00 | 89 | 1019.8 |
| 20260905204145 | 20 | 176 | 4.8 | 8.0 | 0.00 | 0.00 | 0.00 | 88 | 1020.1 |
| 20260905203146 | 20 | 211 | 3.2 | 8.0 | 0.00 | 0.00 | 0.00 | 88 | 1020.2 |
| 20260905200140 | 20 | 161 | 4.8 | 9.7 | 0.00 | 0.00 | 0.00 | 87 | 1020.1 |
| 20260905193138 | 20 | 131 | 4.8 | 9.7 | 0.00 | 0.00 | 0.00 | 88 | 1020.2 |
| 20260905192136 | 20 | 154 | 3.2 | 8.0 | 0.00 | 0.00 | 0.00 | 87 | 1020.2 |
| 20260905191136 | 20 | 146 | 4.8 | 8.0 | 0.00 | 0.00 | 0.00 | 87 | 1020.2 |
| 20260905190135 | 20 | 138 | 4.8 | 11.3 | 0.00 | 0.00 | 0.00 | 86 | 1020.1 |
| 20260905185132 | 20 | 137 | 4.8 | 12.9 | 0.00 | 0.00 | 0.00 | 86 | 1020.1 |
| 20260905183132 | 20 | 138 | 3.2 | 11.3 | 0.00 | 0.00 | 0.00 | 86 | 1020.1 |
| 20260905182132 | 20 | 140 | 3.2 | 8.0 | 0.00 | 0.00 | 0.00 | 87 | 1020.0 |
| 20260905181133 | 20 | 132 | 3.2 | 12.9 | 0.00 | 0.00 | 0.00 | 87 | 1020.1 |
| 20260905175131 | 20 | 171 | 3.2 | 11.3 | 0.00 | 0.00 | 0.00 | 88 | 1020.2 |
| 20260905174132 | 20 | 84 | 3.2 | 9.7 | 0.00 | 0.00 | 0.00 | 89 | 1020.3 |